createdAt,value
2017-04-07T00:01:02.996Z,97.74
2017-04-07T00:02:14.002Z,98.21
2017-04-07T00:03:25.004Z,98.36
2017-04-07T00:04:36.008Z,99.07
2017-04-07T00:05:47.025Z,99.26
2017-04-07T00:06:58.470Z,99.35
2017-04-07T00:08:09.463Z,98.12
2017-04-07T00:09:20.459Z,98.69
2017-04-07T00:10:31.466Z,99.07
2017-04-07T00:11:42.665Z,99.54
2017-04-07T00:12:53.706Z,99.35
2017-04-07T00:14:04.693Z,98.69
2017-04-07T00:15:15.704Z,99.44
2017-04-07T00:16:26.694Z,99.26
2017-04-07T00:17:37.688Z,99.99
2017-04-07T00:18:48.936Z,99.54
2017-04-07T00:20:00.340Z,99.99
2017-04-07T00:21:11.541Z,99.99
2017-04-07T00:22:22.744Z,99.99
2017-04-07T00:23:33.746Z,99.99
2017-04-07T00:24:45.001Z,99.99
2017-04-07T00:25:56.204Z,99.99
2017-04-07T00:27:07.202Z,99.99
2017-04-07T00:28:18.399Z,99.99
2017-04-07T00:29:29.392Z,99.99
2017-04-07T00:30:40.388Z,99.99
2017-04-07T00:31:51.583Z,99.99
2017-04-07T00:33:02.782Z,99.99
2017-04-07T00:34:13.774Z,99.99
2017-04-07T00:35:24.831Z,99.99
2017-04-07T00:36:35.841Z,99.99
2017-04-07T00:37:47.030Z,99.99
2017-04-07T00:38:58.038Z,99.99
2017-04-07T00:40:09.227Z,99.99
2017-04-07T00:41:20.491Z,99.99
2017-04-07T00:42:31.494Z,99.99
2017-04-07T00:43:42.494Z,99.99
2017-04-07T00:44:53.492Z,99.99
2017-04-07T00:46:04.507Z,99.99
2017-04-07T00:47:15.953Z,99.99
2017-04-07T00:48:26.953Z,99.99
2017-04-07T00:49:37.949Z,99.99
2017-04-07T00:50:48.932Z,99.99
2017-04-07T00:52:00.136Z,99.99
2017-04-07T00:53:11.190Z,99.99
2017-04-07T00:54:22.193Z,99.99
2017-04-07T00:55:33.215Z,99.99
2017-04-07T00:56:44.209Z,99.99
2017-04-07T00:57:55.213Z,99.99
2017-04-07T00:59:06.311Z,99.99
2017-04-07T01:00:17.334Z,99.99
2017-04-07T01:01:28.332Z,99.99
2017-04-07T01:02:39.339Z,99.99
2017-04-07T01:03:50.545Z,99.99
2017-04-07T01:05:01.993Z,99.99
2017-04-07T01:06:13.192Z,99.99
2017-04-07T01:07:24.202Z,99.99
2017-04-07T01:08:35.210Z,99.99
2017-04-07T01:09:46.197Z,99.99
2017-04-07T01:10:57.454Z,99.99
2017-04-07T01:12:08.451Z,99.99
2017-04-07T01:13:19.454Z,99.99
2017-04-07T01:14:30.451Z,99.99
2017-04-07T01:15:41.679Z,99.99
2017-04-07T01:16:52.932Z,99.99
2017-04-07T01:18:03.940Z,99.99
2017-04-07T01:19:14.938Z,99.99
2017-04-07T01:20:25.940Z,99.99
2017-04-07T01:21:37.153Z,99.99
2017-04-07T01:22:48.214Z,99.99
2017-04-07T01:23:59.403Z,99.99
2017-04-07T01:25:10.607Z,99.99
2017-04-07T01:26:21.597Z,99.99
2017-04-07T01:27:32.596Z,99.99
2017-04-07T01:28:43.653Z,99.99
2017-04-07T01:29:54.652Z,99.99
2017-04-07T01:31:05.673Z,99.99
2017-04-07T01:32:16.655Z,99.99
2017-04-07T01:33:27.659Z,99.99
2017-04-07T01:34:38.740Z,99.99
2017-04-07T01:35:49.933Z,99.99
2017-04-07T01:37:00.928Z,99.99
2017-04-07T01:38:11.930Z,99.99
2017-04-07T01:39:22.927Z,99.99
2017-04-07T01:40:33.982Z,99.99
2017-04-07T01:41:44.988Z,99.99
2017-04-07T01:42:55.988Z,99.99
2017-04-07T01:44:06.988Z,99.99
2017-04-07T01:45:18.188Z,99.99
2017-04-07T01:46:29.838Z,99.99
2017-04-07T01:47:40.826Z,99.99
2017-04-07T01:48:51.851Z,99.99
2017-04-07T01:50:03.065Z,99.99
2017-04-07T01:51:14.062Z,99.99
2017-04-07T01:52:25.105Z,99.99
2017-04-07T01:53:36.104Z,99.99
2017-04-07T01:54:47.099Z,99.99
2017-04-07T01:55:58.107Z,99.99
2017-04-07T01:57:09.338Z,99.99
2017-04-07T01:58:20.382Z,99.99
2017-04-07T01:59:31.371Z,99.99
2017-04-07T02:00:42.372Z,99.99
2017-04-07T02:01:53.386Z,99.99
2017-04-07T02:03:04.390Z,99.99
2017-04-07T02:04:15.432Z,99.99
2017-04-07T02:05:26.631Z,99.99
2017-04-07T02:06:37.648Z,99.99
2017-04-07T02:07:48.656Z,99.99
2017-04-07T02:08:59.658Z,99.99
2017-04-07T02:10:10.704Z,99.99
2017-04-07T02:11:21.909Z,99.99
2017-04-07T02:12:32.916Z,99.99
2017-04-07T02:13:43.914Z,99.99
2017-04-07T02:14:54.917Z,99.99
2017-04-07T02:16:05.959Z,99.99
2017-04-07T02:17:16.956Z,99.99
2017-04-07T02:18:27.951Z,99.99
2017-04-07T02:19:38.954Z,99.99
2017-04-07T02:20:49.944Z,99.99
2017-04-07T02:22:01.409Z,99.99
2017-04-07T02:23:12.415Z,99.99
2017-04-07T02:24:23.405Z,99.99
2017-04-07T02:25:34.401Z,99.99
2017-04-07T02:26:45.402Z,99.99
2017-04-07T02:27:56.457Z,99.99
2017-04-07T02:29:07.659Z,99.99
2017-04-07T02:30:18.662Z,99.99
2017-04-07T02:31:29.657Z,99.99
2017-04-07T02:32:40.649Z,99.99
2017-04-07T02:33:51.699Z,99.99
2017-04-07T02:35:02.691Z,99.99
2017-04-07T02:36:13.701Z,99.99
2017-04-07T02:37:24.700Z,99.99
2017-04-07T02:38:35.693Z,99.99
2017-04-07T02:39:46.952Z,99.99
2017-04-07T02:40:57.943Z,99.99
2017-04-07T02:42:09.157Z,99.99
2017-04-07T02:43:20.149Z,99.99
2017-04-07T02:44:31.141Z,99.99
2017-04-07T02:45:42.343Z,99.99
2017-04-07T02:46:53.336Z,99.99
2017-04-07T02:48:04.325Z,99.99
2017-04-07T02:49:15.533Z,99.99
2017-04-07T02:50:26.580Z,99.99
2017-04-07T02:51:37.575Z,99.99
2017-04-07T02:52:48.966Z,99.99
2017-04-07T02:53:59.959Z,99.99
2017-04-07T02:55:10.965Z,99.99
2017-04-07T02:56:22.211Z,99.99
2017-04-07T02:57:33.413Z,99.99
2017-04-07T02:58:44.409Z,99.99
2017-04-07T02:59:55.607Z,99.99
2017-04-07T03:01:06.604Z,99.99
2017-04-07T03:02:17.657Z,99.99
2017-04-07T03:03:28.651Z,99.99
2017-04-07T03:04:39.674Z,99.99
2017-04-07T03:05:50.658Z,99.99
2017-04-07T03:07:01.861Z,99.99
2017-04-07T03:08:13.309Z,99.99
2017-04-07T03:09:24.311Z,99.99
2017-04-07T03:10:35.317Z,99.99
2017-04-07T03:11:46.305Z,99.99
2017-04-07T03:12:57.515Z,99.99
2017-04-07T03:14:08.579Z,99.99
2017-04-07T03:15:19.585Z,99.99
2017-04-07T03:16:30.575Z,99.99
2017-04-07T03:17:41.789Z,99.99
2017-04-07T03:18:52.791Z,99.99
2017-04-07T03:20:04.240Z,99.99
2017-04-07T03:21:15.235Z,99.99
2017-04-07T03:22:26.241Z,99.99
2017-04-07T03:23:37.439Z,99.99
2017-04-07T03:24:48.444Z,99.99
2017-04-07T03:25:59.495Z,99.99
2017-04-07T03:27:10.501Z,99.99
2017-04-07T03:28:21.695Z,99.99
2017-04-07T03:29:32.696Z,99.99
2017-04-07T03:30:43.706Z,99.99
2017-04-07T03:31:55.182Z,99.99
2017-04-07T03:33:06.172Z,99.99
2017-04-07T03:34:17.189Z,99.99
2017-04-07T03:35:28.191Z,99.99
2017-04-07T03:36:39.383Z,99.99
2017-04-07T03:37:50.451Z,99.99
2017-04-07T03:39:01.447Z,99.99
2017-04-07T03:40:12.445Z,99.99
2017-04-07T03:41:23.452Z,99.99
2017-04-07T03:42:34.451Z,99.99
2017-04-07T03:43:45.689Z,99.99
2017-04-07T03:44:56.691Z,99.99
2017-04-07T03:46:07.692Z,99.99
2017-04-07T03:47:18.686Z,99.99
2017-04-07T03:48:29.689Z,99.99
2017-04-07T03:49:40.742Z,99.99
2017-04-07T03:50:51.737Z,99.99
2017-04-07T03:52:02.739Z,99.99
2017-04-07T03:53:13.736Z,99.99
2017-04-07T03:54:24.733Z,99.99
2017-04-07T03:55:35.782Z,99.99
2017-04-07T03:56:46.784Z,99.99
2017-04-07T03:57:57.785Z,99.99
2017-04-07T03:59:08.797Z,99.99
2017-04-07T04:00:19.796Z,99.99
2017-04-07T04:01:31.048Z,99.99
2017-04-07T04:02:42.049Z,99.99
2017-04-07T04:03:53.042Z,99.99
2017-04-07T04:05:04.041Z,99.99
2017-04-07T04:06:15.050Z,99.99
2017-04-07T04:07:26.111Z,99.99
2017-04-07T04:08:37.305Z,99.99
2017-04-07T04:09:48.308Z,99.99
2017-04-07T04:10:59.299Z,99.99
2017-04-07T04:12:10.303Z,99.99
2017-04-07T04:13:21.353Z,99.99
2017-04-07T04:14:32.362Z,99.99
2017-04-07T04:15:43.371Z,99.99
2017-04-07T04:16:54.367Z,99.99
2017-04-07T04:18:05.366Z,99.99
2017-04-07T04:19:16.405Z,99.99
2017-04-07T04:20:27.399Z,99.99
2017-04-07T04:21:38.595Z,99.99
2017-04-07T04:22:50.000Z,99.99
2017-04-07T04:24:01.000Z,99.99
2017-04-07T04:25:12.257Z,99.99
2017-04-07T04:26:23.261Z,99.99
2017-04-07T04:27:34.263Z,99.99
2017-04-07T04:28:45.258Z,99.99
2017-04-07T04:29:56.450Z,99.99
2017-04-07T04:31:07.493Z,99.99
2017-04-07T04:32:18.687Z,99.99
2017-04-07T04:33:29.680Z,99.99
2017-04-07T04:34:40.703Z,99.99
2017-04-07T04:35:51.710Z,99.99
2017-04-07T04:37:02.972Z,99.99
2017-04-07T04:38:13.975Z,99.99
2017-04-07T04:39:24.969Z,99.99
2017-04-07T04:40:35.959Z,99.99
2017-04-07T04:41:46.998Z,99.99
2017-04-07T04:42:58.043Z,99.99
2017-04-07T04:44:09.053Z,99.99
2017-04-07T04:45:20.247Z,99.99
2017-04-07T04:46:31.245Z,99.99
2017-04-07T04:47:42.439Z,99.99
2017-04-07T04:48:53.688Z,99.99
2017-04-07T04:50:04.701Z,99.99
2017-04-07T04:51:15.901Z,99.99
2017-04-07T04:52:26.901Z,99.99
2017-04-07T04:53:38.141Z,99.99
2017-04-07T04:54:49.193Z,99.99
2017-04-07T04:56:00.187Z,99.99
2017-04-07T04:57:11.192Z,99.99
2017-04-07T04:58:22.200Z,99.99
2017-04-07T04:59:33.195Z,99.99
2017-04-07T05:00:44.198Z,99.99
2017-04-07T05:01:55.204Z,99.99
2017-04-07T05:03:06.230Z,99.99
2017-04-07T05:04:17.442Z,99.99
2017-04-07T05:05:28.728Z,99.99
2017-04-07T05:06:39.722Z,99.99
2017-04-07T05:07:50.717Z,99.99
2017-04-07T05:09:01.715Z,99.99
2017-04-07T05:10:12.714Z,99.99
2017-04-07T05:11:23.766Z,99.99
2017-04-07T05:12:34.760Z,99.99
2017-04-07T05:13:45.762Z,99.99
2017-04-07T05:14:56.769Z,99.99
2017-04-07T05:16:07.765Z,99.99
2017-04-07T05:17:18.814Z,99.99
2017-04-07T05:18:29.797Z,99.99
2017-04-07T05:19:40.800Z,99.99
2017-04-07T05:20:51.798Z,99.99
2017-04-07T05:22:02.803Z,99.99
2017-04-07T05:23:14.063Z,99.99
2017-04-07T05:24:25.057Z,99.99
2017-04-07T05:25:36.052Z,99.99
2017-04-07T05:26:47.041Z,99.99
2017-04-07T05:27:58.032Z,99.99
2017-04-07T05:29:09.082Z,99.99
2017-04-07T05:30:20.083Z,99.99
2017-04-07T05:31:31.095Z,99.99
2017-04-07T05:32:42.091Z,99.99
2017-04-07T05:33:53.302Z,99.99
2017-04-07T05:35:04.554Z,99.99
2017-04-07T05:36:15.555Z,99.99
2017-04-07T05:37:26.755Z,99.99
2017-04-07T05:38:37.754Z,99.99
2017-04-07T05:39:48.755Z,99.99
2017-04-07T05:41:00.215Z,99.99
2017-04-07T05:42:11.225Z,99.99
2017-04-07T05:43:22.434Z,99.99
2017-04-07T05:44:33.434Z,99.99
2017-04-07T05:45:44.447Z,99.99
2017-04-07T05:46:55.691Z,99.99
2017-04-07T05:48:06.689Z,99.99
2017-04-07T05:49:17.696Z,99.99
2017-04-07T05:50:28.685Z,99.99
2017-04-07T05:51:39.886Z,99.99
2017-04-07T05:52:50.923Z,99.99
2017-04-07T05:54:01.939Z,99.99
2017-04-07T05:55:12.943Z,99.99
2017-04-07T05:56:23.935Z,99.99
2017-04-07T05:57:34.950Z,99.99
2017-04-07T05:58:46.200Z,99.99
2017-04-07T05:59:57.197Z,99.99
2017-04-07T06:01:08.211Z,99.99
2017-04-07T06:02:19.211Z,99.99
2017-04-07T06:03:30.207Z,99.99
2017-04-07T06:04:41.254Z,99.99
2017-04-07T06:05:52.250Z,99.99
2017-04-07T06:07:03.264Z,99.99
2017-04-07T06:08:14.260Z,99.99
2017-04-07T06:09:25.273Z,99.97
2017-04-07T06:10:36.521Z,99.99
2017-04-07T06:11:47.716Z,99.99
2017-04-07T06:12:58.703Z,99.99
2017-04-07T06:14:09.710Z,99.99
2017-04-07T06:15:20.911Z,99.99
2017-04-07T06:16:32.162Z,99.99
2017-04-07T06:17:43.157Z,99.99
2017-04-07T06:18:54.161Z,99.99
2017-04-07T06:20:05.159Z,99.99
2017-04-07T06:21:16.154Z,99.99
2017-04-07T06:22:27.204Z,99.99
2017-04-07T06:23:38.414Z,99.99
2017-04-07T06:24:49.607Z,99.99
2017-04-07T06:26:00.606Z,99.99
2017-04-07T06:27:11.800Z,99.97
2017-04-07T06:28:23.054Z,99.99
2017-04-07T06:29:34.259Z,99.99
2017-04-07T06:30:45.263Z,99.99
2017-04-07T06:31:56.277Z,99.99
2017-04-07T06:33:07.269Z,99.99
2017-04-07T06:34:18.318Z,99.99
2017-04-07T06:35:29.512Z,99.99
2017-04-07T06:36:40.507Z,99.99
2017-04-07T06:37:51.511Z,99.99
2017-04-07T06:39:02.505Z,99.99
2017-04-07T06:40:13.554Z,99.99
2017-04-07T06:41:24.561Z,99.99
2017-04-07T06:42:35.563Z,99.99
2017-04-07T06:43:46.765Z,99.84
2017-04-07T06:44:57.773Z,99.99
2017-04-07T06:46:09.024Z,99.99
2017-04-07T06:47:20.019Z,99.99
2017-04-07T06:48:31.027Z,99.93
2017-04-07T06:49:42.022Z,99.99
2017-04-07T06:50:53.026Z,99.99
2017-04-07T06:52:04.286Z,99.99
2017-04-07T06:53:15.295Z,99.99
2017-04-07T06:54:26.290Z,99.99
2017-04-07T06:55:37.290Z,99.99
2017-04-07T06:56:48.501Z,99.99
2017-04-07T06:57:59.762Z,99.99
2017-04-07T06:59:10.970Z,99.99
2017-04-07T07:00:21.979Z,99.99
2017-04-07T07:01:33.021Z,99.99
2017-04-07T07:02:44.226Z,99.99
2017-04-07T07:03:55.278Z,99.99
2017-04-07T07:05:06.293Z,99.99
2017-04-07T07:06:17.293Z,99.99
2017-04-07T07:07:28.485Z,99.99
2017-04-07T07:08:39.480Z,99.99
2017-04-07T07:09:50.714Z,99.99
2017-04-07T07:11:01.913Z,99.99
2017-04-07T07:12:13.115Z,99.99
2017-04-07T07:13:24.321Z,99.99
2017-04-07T07:14:35.311Z,99.99
2017-04-07T07:15:46.319Z,99.99
2017-04-07T07:16:57.316Z,99.99
2017-04-07T07:18:08.318Z,99.99
2017-04-07T07:19:19.310Z,99.99
2017-04-07T07:20:30.559Z,99.88
2017-04-07T07:21:41.557Z,99.99
2017-04-07T07:22:52.565Z,99.99
2017-04-07T07:24:03.763Z,99.99
2017-04-07T07:25:14.761Z,99.99
2017-04-07T07:26:25.816Z,99.99
2017-04-07T07:27:36.826Z,99.99
2017-04-07T07:28:48.028Z,99.88
2017-04-07T07:29:59.226Z,99.99
2017-04-07T07:31:10.230Z,99.99
2017-04-07T07:32:21.229Z,99.99
2017-04-07T07:33:32.225Z,99.99
2017-04-07T07:34:43.259Z,99.99
2017-04-07T07:35:54.258Z,99.99
2017-04-07T07:37:05.343Z,99.99
2017-04-07T07:38:16.351Z,99.99
2017-04-07T07:39:27.350Z,99.99
2017-04-07T07:40:38.341Z,99.99
2017-04-07T07:41:49.539Z,99.99
2017-04-07T07:43:00.592Z,99.99
2017-04-07T07:44:11.618Z,99.99
2017-04-07T07:45:22.643Z,99.31
2017-04-07T07:46:33.847Z,98.55
2017-04-07T07:47:45.047Z,97.65
2017-04-07T07:48:56.492Z,98.98
2017-04-07T07:50:07.492Z,97.74
2017-04-07T07:51:18.504Z,97.31
2017-04-07T07:52:29.499Z,97.51
2017-04-07T07:53:40.501Z,95.89
2017-04-07T07:54:51.557Z,96.36
2017-04-07T07:56:02.553Z,95.41
2017-04-07T07:57:13.767Z,95.22
2017-04-07T07:58:24.772Z,93.74
2017-04-07T07:59:35.988Z,94.74
2017-04-07T08:00:47.001Z,94.84
2017-04-07T08:01:58.001Z,96.46
2017-04-07T08:03:09.011Z,98.18
2017-04-07T08:04:20.019Z,97.65
2017-04-07T08:05:31.267Z,93.08
2017-04-07T08:06:42.463Z,94.84
2017-04-07T08:07:53.498Z,98.32
2017-04-07T08:09:04.507Z,98.13
2017-04-07T08:10:15.528Z,96.98
2017-04-07T08:11:26.991Z,94.22
2017-04-07T08:12:37.991Z,94.03
2017-04-07T08:13:48.988Z,97.17
2017-04-07T08:14:59.996Z,95.27
2017-04-07T08:16:11.024Z,95.75
2017-04-07T08:17:22.078Z,97.17
2017-04-07T08:18:33.276Z,96.89
2017-04-07T08:19:44.272Z,94.03
2017-04-07T08:20:55.277Z,94.51
2017-04-07T08:22:06.301Z,95.51
2017-04-07T08:23:17.359Z,95.6
2017-04-07T08:24:28.362Z,97.31
2017-04-07T08:25:39.370Z,96.94
2017-04-07T08:26:50.378Z,94.93
2017-04-07T08:28:01.381Z,94.08
2017-04-07T08:29:12.444Z,94.93
2017-04-07T08:30:23.453Z,97.03
2017-04-07T08:31:34.462Z,96.22
2017-04-07T08:32:45.462Z,96.98
2017-04-07T08:33:56.470Z,96.7
2017-04-07T08:35:07.529Z,96.32
2017-04-07T08:36:18.522Z,95.32
2017-04-07T08:37:29.531Z,96.17
2017-04-07T08:38:40.531Z,95.65
2017-04-07T08:39:51.536Z,96.98
2017-04-07T08:41:02.792Z,96.51
2017-04-07T08:42:13.799Z,97.27
2017-04-07T08:43:24.998Z,97.36
2017-04-07T08:44:36.202Z,97.65
2017-04-07T08:45:47.402Z,98.51
2017-04-07T08:46:58.466Z,98.6
2017-04-07T08:48:09.468Z,97.94
2017-04-07T08:49:20.663Z,98.03
2017-04-07T08:50:31.658Z,98.51
2017-04-07T08:51:42.676Z,99.65
2017-04-07T08:52:53.936Z,99.84
2017-04-07T08:54:04.942Z,99.18
2017-04-07T08:55:15.946Z,97.84
2017-04-07T08:56:26.946Z,95.03
2017-04-07T08:57:37.947Z,96.36
2017-04-07T08:58:48.991Z,96.84
2017-04-07T08:59:59.995Z,95.98
2017-04-07T09:01:10.996Z,96.17
2017-04-07T09:02:21.992Z,96.56
2017-04-07T09:03:32.987Z,96.27
2017-04-07T09:04:44.248Z,95.61
2017-04-07T09:05:55.254Z,95.32
2017-04-07T09:07:06.268Z,92.65
2017-04-07T09:08:17.266Z,92.65
2017-04-07T09:09:28.274Z,93.7
2017-04-07T09:10:39.326Z,94.84
2017-04-07T09:11:50.531Z,95.89
2017-04-07T09:13:01.534Z,94.84
2017-04-07T09:14:12.770Z,95.12
2017-04-07T09:15:24.162Z,96.8
2017-04-07T09:16:35.216Z,95.27
2017-04-07T09:17:46.213Z,92.22
2017-04-07T09:18:57.218Z,91.74
2017-04-07T09:20:08.230Z,92.98
2017-04-07T09:21:19.237Z,92.22
2017-04-07T09:22:30.486Z,95.27
2017-04-07T09:23:41.493Z,93.93
2017-04-07T09:24:52.502Z,92.41
2017-04-07T09:26:03.504Z,91.36
2017-04-07T09:27:14.509Z,92.03
2017-04-07T09:28:25.963Z,92.69
2017-04-07T09:29:36.962Z,92.22
2017-04-07T09:30:47.998Z,91.74
2017-04-07T09:31:59.205Z,91.46
2017-04-07T09:33:10.208Z,92.22
2017-04-07T09:34:21.258Z,93.84
2017-04-07T09:35:32.261Z,93.55
2017-04-07T09:36:43.272Z,93.17
2017-04-07T09:37:54.282Z,92.6
2017-04-07T09:39:05.278Z,92.22
2017-04-07T09:40:16.729Z,93.08
2017-04-07T09:41:27.927Z,92.6
2017-04-07T09:42:38.930Z,92.5
2017-04-07T09:43:49.935Z,93.46
2017-04-07T09:45:01.138Z,91.93
2017-04-07T09:46:12.192Z,91.74
2017-04-07T09:47:23.195Z,93.08
2017-04-07T09:48:34.201Z,92.41
2017-04-07T09:49:45.210Z,93.17
2017-04-07T09:50:56.213Z,93.74
2017-04-07T09:52:07.471Z,92.12
2017-04-07T09:53:18.472Z,91.64
2017-04-07T09:54:29.478Z,91.55
2017-04-07T09:55:40.477Z,91.88
2017-04-07T09:56:51.682Z,90.55
2017-04-07T09:58:02.732Z,90.64
2017-04-07T09:59:13.740Z,90.36
2017-04-07T10:00:24.737Z,90.36
2017-04-07T10:01:35.741Z,86.96
2017-04-07T10:02:46.741Z,85.67
2017-04-07T10:03:58.202Z,83.38
2017-04-07T10:05:09.209Z,82.75
2017-04-07T10:06:20.210Z,80.21
2017-04-07T10:07:31.205Z,79.93
2017-04-07T10:08:42.213Z,80.59
2017-04-07T10:09:53.271Z,79.54
2017-04-07T10:11:04.479Z,78.63
2017-04-07T10:12:15.488Z,77.38
2017-04-07T10:13:26.701Z,76.52
2017-04-07T10:14:37.907Z,74.26
2017-04-07T10:15:49.132Z,73.88
2017-04-07T10:17:00.156Z,74.3
2017-04-07T10:18:11.172Z,72.96
2017-04-07T10:19:22.194Z,74.49
2017-04-07T10:20:33.262Z,73.05
2017-04-07T10:21:44.472Z,74.01
2017-04-07T10:22:55.485Z,74.49
2017-04-07T10:24:06.496Z,73.63
2017-04-07T10:25:17.510Z,72.52
2017-04-07T10:26:28.984Z,71.37
2017-04-07T10:27:40.000Z,71.66
2017-04-07T10:28:51.242Z,71.37
2017-04-07T10:30:02.256Z,71.75
2017-04-07T10:31:13.487Z,71.66
2017-04-07T10:32:24.563Z,72.96
2017-04-07T10:33:35.577Z,73.91
2017-04-07T10:34:46.608Z,74.16
2017-04-07T10:35:57.619Z,73.3
2017-04-07T10:37:08.633Z,73.72
2017-04-07T10:38:19.700Z,73.24
2017-04-07T10:39:30.718Z,74.58
2017-04-07T10:40:41.741Z,75.31
2017-04-07T10:41:52.759Z,76.46
2017-04-07T10:43:03.767Z,75.64
2017-04-07T10:44:15.034Z,75.93
2017-04-07T10:45:26.044Z,75.31
2017-04-07T10:46:37.060Z,74.97
2017-04-07T10:47:48.271Z,73.91
2017-04-07T10:48:59.492Z,74.87
2017-04-07T10:50:10.949Z,74.43
2017-04-07T10:51:21.967Z,73.38
2017-04-07T10:52:32.995Z,72.96
2017-04-07T10:53:43.997Z,74.11
2017-04-07T10:54:55.016Z,73.38
2017-04-07T10:56:06.278Z,72.8
2017-04-07T10:57:17.282Z,71.88
2017-04-07T10:58:28.285Z,70.83
2017-04-07T10:59:39.499Z,70.83
2017-04-07T11:00:50.516Z,71.02
2017-04-07T11:02:01.801Z,72.32
2017-04-07T11:03:13.207Z,73.76
2017-04-07T11:04:24.220Z,73.47
2017-04-07T11:05:35.235Z,73.66
2017-04-07T11:06:46.244Z,73.66
2017-04-07T11:07:57.311Z,74.49
2017-04-07T11:09:08.521Z,75.35
2017-04-07T11:10:19.743Z,75.83
2017-04-07T11:11:30.958Z,75.6
2017-04-07T11:12:41.969Z,76.5
2017-04-07T11:13:53.220Z,75.54
2017-04-07T11:15:04.219Z,75.35
2017-04-07T11:16:15.233Z,74.15
2017-04-07T11:17:26.253Z,73.03
2017-04-07T11:18:37.267Z,72.45
2017-04-07T11:19:48.332Z,71.82
2017-04-07T11:20:59.332Z,70.67
2017-04-07T11:22:10.754Z,70.96
2017-04-07T11:23:21.779Z,70.9
2017-04-07T11:24:32.983Z,70.32
2017-04-07T11:25:44.471Z,68.44
2017-04-07T11:26:55.496Z,69.2
2017-04-07T11:28:06.524Z,69.36
2017-04-07T11:29:17.560Z,70.32
2017-04-07T11:30:28.578Z,71.19
2017-04-07T11:31:39.641Z,71.15
2017-04-07T11:32:50.667Z,71.53
2017-04-07T11:34:01.887Z,72.17
2017-04-07T11:35:12.906Z,73.41
2017-04-07T11:36:24.140Z,73.95
2017-04-07T11:37:35.207Z,75.01
2017-04-07T11:38:46.213Z,75.1
2017-04-07T11:39:57.427Z,75.01
2017-04-07T11:41:08.657Z,74.33
2017-04-07T11:42:19.660Z,73.61
2017-04-07T11:43:30.733Z,73.65
2017-04-07T11:44:41.741Z,72.3
2017-04-07T11:45:52.755Z,72.49
2017-04-07T11:47:03.972Z,73.7
2017-04-07T11:48:14.986Z,73.61
2017-04-07T11:49:26.248Z,73.7
2017-04-07T11:50:37.264Z,72.64
2017-04-07T11:51:48.280Z,72.84
2017-04-07T11:52:59.296Z,73.22
2017-04-07T11:54:10.512Z,73.57
2017-04-07T11:55:21.793Z,74.33
2017-04-07T11:56:32.809Z,74.52
2017-04-07T11:57:43.828Z,75.77
2017-04-07T11:58:54.839Z,76.06
2017-04-07T12:00:06.055Z,76.06
2017-04-07T12:01:17.107Z,76.79
2017-04-07T12:02:28.115Z,77.94
2017-04-07T12:03:39.329Z,78.86
2017-04-07T12:04:50.537Z,78.66
2017-04-07T12:06:01.557Z,79.24
2017-04-07T12:07:12.619Z,79.14
2017-04-07T12:08:23.623Z,78.66
2017-04-07T12:09:34.630Z,79.33
2017-04-07T12:10:45.642Z,78.95
2017-04-07T12:11:56.658Z,78.95
2017-04-07T12:13:08.156Z,78.7
2017-04-07T12:14:19.158Z,78.22
2017-04-07T12:15:30.182Z,78.99
2017-04-07T12:16:41.185Z,78.7
2017-04-07T12:17:52.182Z,78.66
2017-04-07T12:19:03.241Z,78.89
2017-04-07T12:20:14.262Z,78.47
2017-04-07T12:21:25.469Z,78.8
2017-04-07T12:22:36.478Z,78.42
2017-04-07T12:23:47.495Z,78.45
2017-04-07T12:24:58.567Z,76.64
2017-04-07T12:26:09.574Z,75.81
2017-04-07T12:27:20.591Z,74.57
2017-04-07T12:28:31.817Z,74.08
2017-04-07T12:29:43.047Z,74.37
2017-04-07T12:30:54.114Z,74.37
2017-04-07T12:32:05.329Z,74.85
2017-04-07T12:33:16.341Z,75.23
2017-04-07T12:34:27.565Z,75.43
2017-04-07T12:35:38.629Z,75.68
2017-04-07T12:36:49.643Z,74.95
2017-04-07T12:38:00.865Z,74.82
2017-04-07T12:39:11.874Z,75.48
2017-04-07T12:40:22.896Z,74.24
2017-04-07T12:41:34.168Z,76.15
2017-04-07T12:42:45.184Z,76.73
2017-04-07T12:43:56.403Z,76.35
2017-04-07T12:45:07.423Z,76.73
2017-04-07T12:46:18.432Z,77.5
2017-04-07T12:47:29.691Z,78.27
2017-04-07T12:48:40.702Z,77.59
2017-04-07T12:49:51.713Z,78.36
2017-04-07T12:51:02.725Z,76.44
2017-04-07T12:52:13.741Z,76.06
2017-04-07T12:53:25.008Z,76.92
2017-04-07T12:54:36.012Z,76.54
2017-04-07T12:55:47.043Z,77.21
2017-04-07T12:56:58.048Z,78.22
2017-04-07T12:58:09.065Z,78.13
2017-04-07T12:59:20.143Z,78.32
2017-04-07T13:00:31.356Z,79.37
2017-04-07T13:01:42.363Z,79.57
2017-04-07T13:02:53.364Z,79.18
2017-04-07T13:04:04.376Z,77.46
2017-04-07T13:05:15.646Z,77.17
2017-04-07T13:06:26.660Z,78.13
2017-04-07T13:07:37.672Z,77.75
2017-04-07T13:08:48.692Z,78.51
2017-04-07T13:09:59.923Z,78.03
2017-04-07T13:11:10.990Z,78.7
2017-04-07T13:12:22.000Z,78.99
2017-04-07T13:13:33.210Z,79.37
2017-04-07T13:14:44.222Z,79.85
2017-04-07T13:15:55.230Z,79.08
2017-04-07T13:17:06.502Z,79.75
2017-04-07T13:18:17.502Z,80.1
2017-04-07T13:19:28.500Z,80.24
2017-04-07T13:20:39.509Z,79.75
2017-04-07T13:21:50.519Z,79.85
2017-04-07T13:23:01.582Z,79.66
2017-04-07T13:24:12.601Z,80.96
2017-04-07T13:25:23.816Z,81.34
2017-04-07T13:26:34.817Z,82.3
2017-04-07T13:27:46.023Z,81.63
2017-04-07T13:28:57.079Z,80.77
2017-04-07T13:30:08.089Z,80.38
2017-04-07T13:31:19.101Z,81.05
2017-04-07T13:32:30.107Z,82.2
2017-04-07T13:33:41.132Z,82.49
2017-04-07T13:34:52.213Z,81.54
2017-04-07T13:36:03.240Z,81.82
2017-04-07T13:37:14.652Z,82.11
2017-04-07T13:38:25.670Z,81.73
2017-04-07T13:39:36.678Z,81.92
2017-04-07T13:40:47.939Z,82.3
2017-04-07T13:41:58.948Z,82.3
2017-04-07T13:43:09.960Z,82.11
2017-04-07T13:44:21.161Z,82.3
2017-04-07T13:45:32.179Z,82.68
2017-04-07T13:46:43.231Z,82.2
2017-04-07T13:47:54.232Z,82.01
2017-04-07T13:49:05.247Z,83.16
2017-04-07T13:50:16.454Z,82.78
2017-04-07T13:51:27.463Z,82.68
2017-04-07T13:52:38.723Z,82.11
2017-04-07T13:53:49.936Z,83.06
2017-04-07T13:55:00.939Z,83.36
2017-04-07T13:56:11.983Z,84.02
2017-04-07T13:57:22.996Z,82.4
2017-04-07T13:58:34.252Z,82.01
2017-04-07T13:59:45.255Z,82.87
2017-04-07T14:00:56.272Z,82.68
2017-04-07T14:02:07.277Z,82.4
2017-04-07T14:03:18.288Z,82.59
2017-04-07T14:04:29.362Z,81.92
2017-04-07T14:05:40.361Z,82.78
2017-04-07T14:06:51.378Z,82.11
2017-04-07T14:08:02.591Z,82.78
2017-04-07T14:09:13.604Z,82.68
2017-04-07T14:10:25.075Z,82.59
2017-04-07T14:11:36.077Z,82.01
2017-04-07T14:12:47.292Z,82.97
2017-04-07T14:13:58.314Z,82.87
2017-04-07T14:15:09.335Z,83.26
2017-04-07T14:16:20.399Z,83.06
2017-04-07T14:17:31.403Z,82.97
2017-04-07T14:18:42.615Z,83.54
2017-04-07T14:19:53.631Z,83.83
2017-04-07T14:21:04.824Z,84.02
2017-04-07T14:22:16.094Z,83.26
2017-04-07T14:23:27.136Z,83.73
2017-04-07T14:24:38.147Z,84.12
2017-04-07T14:25:49.149Z,84.02
2017-04-07T14:27:00.179Z,84.41
2017-04-07T14:28:11.228Z,84.02
2017-04-07T14:29:22.268Z,85.08
2017-04-07T14:30:33.477Z,84.31
2017-04-07T14:31:44.494Z,84.88
2017-04-07T14:32:55.496Z,84.69
2017-04-07T14:34:06.560Z,84.59
2017-04-07T14:35:17.577Z,84.88
2017-04-07T14:36:28.594Z,84.98
2017-04-07T14:37:39.589Z,84.41
2017-04-07T14:38:50.790Z,84.69
2017-04-07T14:40:02.042Z,84.5
2017-04-07T14:41:13.061Z,84.22
2017-04-07T14:42:24.272Z,84.31
2017-04-07T14:43:35.321Z,84.59
2017-04-07T14:44:46.320Z,84.88
2017-04-07T14:45:57.334Z,84.69
2017-04-07T14:47:08.339Z,84.12
2017-04-07T14:48:19.360Z,84.02
2017-04-07T14:49:30.377Z,84.5
2017-04-07T14:50:41.631Z,83.93
2017-04-07T14:51:52.641Z,84.41
2017-04-07T14:53:03.649Z,83.73
2017-04-07T14:54:14.873Z,83.83
2017-04-07T14:55:25.907Z,83.06
2017-04-07T14:56:36.964Z,83.83
2017-04-07T14:57:47.973Z,83.73
2017-04-07T14:58:58.987Z,83.64
2017-04-07T15:00:09.989Z,83.54
2017-04-07T15:01:21.002Z,83.83
2017-04-07T15:02:32.058Z,83.64
2017-04-07T15:03:43.068Z,83.73
2017-04-07T15:04:54.068Z,84.41
2017-04-07T15:06:05.074Z,83.73
2017-04-07T15:07:16.081Z,83.83
2017-04-07T15:08:27.342Z,84.41
2017-04-07T15:09:38.352Z,84.02
2017-04-07T15:10:49.554Z,84.02
2017-04-07T15:12:00.562Z,84.41
2017-04-07T15:13:11.569Z,84.69
2017-04-07T15:14:22.825Z,84.31
2017-04-07T15:15:34.049Z,84.12
2017-04-07T15:16:45.047Z,84.59